createdAt,value
2023-03-21T00:00:53.512Z,1220.00
2023-03-21T00:01:53.546Z,1220.00
2023-03-21T00:02:53.535Z,1221.00
2023-03-21T00:03:53.503Z,1225.00
2023-03-21T00:04:55.067Z,1214.00
2023-03-21T00:05:53.620Z,1225.00
2023-03-21T00:06:53.410Z,1219.00
2023-03-21T00:07:53.394Z,1232.00
2023-03-21T00:08:53.379Z,1210.00
2023-03-21T00:09:55.183Z,1207.00
2023-03-21T00:10:53.360Z,1208.00
2023-03-21T00:11:53.357Z,1209.00
2023-03-21T00:12:53.339Z,1210.00
2023-03-21T00:13:53.335Z,1218.00
2023-03-21T00:14:53.308Z,1220.00
2023-03-21T00:16:07.111Z,1217.00
2023-03-21T00:16:54.298Z,1208.00
2023-03-21T00:17:53.271Z,1208.00
2023-03-21T00:18:53.232Z,1210.00
2023-03-21T00:19:53.242Z,1213.00
2023-03-21T00:21:02.530Z,1204.00
2023-03-21T00:22:08.814Z,1208.00
2023-03-21T00:22:54.191Z,1208.00
2023-03-21T00:23:53.170Z,1211.00
2023-03-21T00:24:53.155Z,1213.00
2023-03-21T00:25:53.167Z,1214.00
2023-03-21T00:26:53.919Z,1220.00
2023-03-21T00:28:07.225Z,1202.00
2023-03-21T00:28:54.118Z,1203.00
2023-03-21T00:29:53.101Z,1203.00
2023-03-21T00:30:53.079Z,1210.00
2023-03-21T00:31:53.071Z,1204.00
2023-03-21T00:32:56.443Z,1196.00
2023-03-21T00:33:53.026Z,1203.00
2023-03-21T00:35:38.273Z,1202.00
2023-03-21T00:36:02.238Z,1203.00
2023-03-21T00:36:54.099Z,1204.00
2023-03-21T00:37:52.971Z,1210.00
2023-03-21T00:38:52.954Z,1209.00
2023-03-21T00:39:52.960Z,1206.00
2023-03-21T00:40:53.038Z,1208.00
2023-03-21T00:41:52.953Z,1203.00
2023-03-21T00:42:52.910Z,1203.00
2023-03-21T00:43:52.891Z,1203.00
2023-03-21T00:44:52.881Z,1204.00
2023-03-21T00:45:52.866Z,1196.00
2023-03-21T00:47:06.205Z,1196.00
2023-03-21T00:47:53.956Z,1203.00
2023-03-21T00:48:52.815Z,1203.00
2023-03-21T00:49:52.794Z,1205.00
2023-03-21T00:50:52.781Z,1191.00
2023-03-21T00:51:53.294Z,1197.00
2023-03-21T00:52:52.757Z,1199.00
2023-03-21T00:53:52.738Z,1179.00
2023-03-21T00:54:52.728Z,1183.00
2023-03-21T00:55:52.704Z,1192.00
2023-03-21T00:56:52.708Z,1172.00
2023-03-21T00:58:01.222Z,1159.00
2023-03-21T00:58:53.682Z,1160.00
2023-03-21T00:59:52.669Z,1163.00
2023-03-21T01:00:52.767Z,1166.00
2023-03-21T01:01:52.688Z,1169.00
2023-03-21T01:03:00.196Z,1177.00
2023-03-21T01:03:53.616Z,1160.00
2023-03-21T01:04:52.639Z,1163.00
2023-03-21T01:05:52.618Z,1161.00
2023-03-21T01:06:52.588Z,1163.00
2023-03-21T01:07:52.573Z,1160.00
2023-03-21T01:08:53.522Z,1160.00
2023-03-21T01:09:52.544Z,1161.00
2023-03-21T01:10:52.536Z,1175.00
2023-03-21T01:11:52.518Z,1158.00
2023-03-21T01:12:52.488Z,1171.00
2023-03-21T01:13:59.753Z,1154.00
2023-03-21T01:14:53.465Z,1155.00
2023-03-21T01:15:52.472Z,1152.00
2023-03-21T01:16:52.425Z,1155.00
2023-03-21T01:17:52.425Z,1143.00
2023-03-21T01:18:52.406Z,1152.00
2023-03-21T01:19:52.566Z,1148.00
2023-03-21T01:20:52.371Z,1143.00
2023-03-21T01:21:52.366Z,1153.00
2023-03-21T01:22:52.335Z,1138.00
2023-03-21T01:23:52.334Z,1144.00
2023-03-21T01:24:56.968Z,1149.00
2023-03-21T01:25:53.313Z,1149.00
2023-03-21T01:26:52.327Z,1149.00
2023-03-21T01:27:52.270Z,1145.00
2023-03-21T01:28:52.280Z,1140.00
2023-03-21T01:29:52.248Z,1143.00
2023-03-21T01:30:52.239Z,1151.00
2023-03-21T01:31:52.355Z,1145.00
2023-03-21T01:32:52.208Z,1128.00
2023-03-21T01:33:52.215Z,1132.00
2023-03-21T01:34:52.184Z,1133.00
2023-03-21T01:36:03.079Z,1129.00
2023-03-21T01:36:53.292Z,1130.00
2023-03-21T01:37:52.134Z,1131.00
2023-03-21T01:38:52.120Z,1123.00
2023-03-21T01:39:52.121Z,1127.00
2023-03-21T01:40:52.132Z,1120.00
2023-03-21T01:41:52.101Z,1105.00
2023-03-21T01:42:52.088Z,1111.00
2023-03-21T01:43:52.060Z,1119.00
2023-03-21T01:44:52.049Z,1112.00
2023-03-21T01:45:52.075Z,1115.00
2023-03-21T01:47:03.958Z,1104.00
2023-03-21T01:47:53.068Z,1105.00
2023-03-21T01:48:52.022Z,1107.00
2023-03-21T01:49:52.006Z,1109.00
2023-03-21T01:50:51.965Z,1107.00
2023-03-21T01:51:53.684Z,1107.00
2023-03-21T01:52:51.957Z,1125.00
2023-03-21T01:53:51.930Z,1110.00
2023-03-21T01:54:51.918Z,1104.00
2023-03-21T01:55:51.896Z,1096.00
2023-03-21T01:56:51.882Z,1099.00
2023-03-21T01:58:04.328Z,1108.00
2023-03-21T01:58:52.858Z,1108.00
2023-03-21T01:59:51.834Z,1108.00
2023-03-21T02:00:51.873Z,1100.00
2023-03-21T02:01:51.808Z,1109.00
2023-03-21T02:02:52.531Z,1094.00
2023-03-21T02:03:51.854Z,1096.00
2023-03-21T02:04:51.789Z,1096.00
2023-03-21T02:05:51.762Z,1099.00
2023-03-21T02:06:51.771Z,1093.00
2023-03-21T02:07:51.755Z,1093.00
2023-03-21T02:08:51.746Z,1087.00
2023-03-21T02:09:51.728Z,1088.00
2023-03-21T02:10:51.727Z,1089.00
2023-03-21T02:11:51.715Z,1089.00
2023-03-21T02:12:51.715Z,1095.00
2023-03-21T02:13:55.829Z,1074.00
2023-03-21T02:14:52.699Z,1088.00
2023-03-21T02:15:51.687Z,1088.00
2023-03-21T02:16:51.723Z,1090.00
2023-03-21T02:17:51.662Z,1089.00
2023-03-21T02:18:51.645Z,1086.00
2023-03-21T02:19:53.678Z,1081.00
2023-03-21T02:20:51.626Z,1079.00
2023-03-21T02:21:51.621Z,1078.00
2023-03-21T02:22:51.610Z,1076.00
2023-03-21T02:23:51.614Z,1078.00
2023-03-21T02:24:59.627Z,1064.00
2023-03-21T02:25:52.594Z,1065.00
2023-03-21T02:27:01.489Z,1066.00
2023-03-21T02:27:52.577Z,1065.00
2023-03-21T02:28:51.545Z,1067.00
2023-03-21T02:29:51.541Z,1071.00
2023-03-21T02:30:52.590Z,1067.00
2023-03-21T02:31:51.564Z,1074.00
2023-03-21T02:32:51.519Z,1068.00
2023-03-21T02:33:51.512Z,1057.00
2023-03-21T02:34:51.490Z,1058.00
2023-03-21T02:35:54.460Z,1065.00
2023-03-21T02:36:52.505Z,1066.00
2023-03-21T02:37:58.500Z,1066.00
2023-03-21T02:38:52.466Z,1067.00
2023-03-21T02:39:51.459Z,1065.00
2023-03-21T02:40:51.455Z,1069.00
2023-03-21T02:41:51.456Z,1072.00
2023-03-21T02:42:59.482Z,1071.00
2023-03-21T02:43:52.430Z,1066.00
2023-03-21T02:44:51.425Z,1067.00
2023-03-21T02:45:51.430Z,1061.00
2023-03-21T02:46:59.714Z,1062.00
2023-03-21T02:47:52.501Z,1066.00
2023-03-21T02:48:51.424Z,1065.00
2023-03-21T02:49:51.358Z,1061.00
2023-03-21T02:50:51.358Z,1070.00
2023-03-21T02:51:51.349Z,1047.00
2023-03-21T02:52:51.336Z,1051.00
2023-03-21T02:54:02.116Z,1049.00
2023-03-21T02:54:52.308Z,1050.00
2023-03-21T02:55:51.304Z,1051.00
2023-03-21T02:56:51.281Z,1051.00
2023-03-21T02:57:52.501Z,1047.00
2023-03-21T02:58:51.261Z,1049.00
2023-03-21T02:59:55.703Z,1043.00
2023-03-21T03:00:52.239Z,1044.00
2023-03-21T03:01:51.251Z,1045.00
2023-03-21T03:03:02.675Z,1045.00
2023-03-21T03:03:52.222Z,1044.00
2023-03-21T03:04:51.187Z,1046.00
2023-03-21T03:05:51.168Z,1047.00
2023-03-21T03:06:51.158Z,1049.00
2023-03-21T03:07:51.158Z,1051.00
2023-03-21T03:09:01.801Z,1053.00
2023-03-21T03:09:52.130Z,1053.00
2023-03-21T03:10:51.129Z,1054.00
2023-03-21T03:11:51.121Z,1053.00
2023-03-21T03:12:51.096Z,1051.00
2023-03-21T03:13:51.102Z,1036.00
2023-03-21T03:15:02.735Z,1036.00
2023-03-21T03:15:52.083Z,1037.00
2023-03-21T03:16:51.052Z,1039.00
2023-03-21T03:17:51.041Z,1023.00
2023-03-21T03:18:51.053Z,1037.00
2023-03-21T03:19:51.415Z,1028.00
2023-03-21T03:20:50.992Z,1030.00
2023-03-21T03:21:50.974Z,1025.00
2023-03-21T03:22:50.960Z,1028.00
2023-03-21T03:23:50.946Z,1026.00
2023-03-21T03:24:50.952Z,1022.00
2023-03-21T03:25:50.945Z,1016.00
2023-03-21T03:26:50.904Z,1030.00
2023-03-21T03:27:50.890Z,1003.00
2023-03-21T03:28:50.902Z,1018.00
2023-03-21T03:29:50.900Z,1015.00
2023-03-21T03:31:07.125Z,1013.00
2023-03-21T03:31:51.916Z,1014.00
2023-03-21T03:32:50.837Z,1011.00
2023-03-21T03:33:50.818Z,1013.00
2023-03-21T03:34:50.811Z,1006.00
2023-03-21T03:36:04.664Z,1026.00
2023-03-21T03:36:51.884Z,1014.00
2023-03-21T03:37:50.783Z,1014.00
2023-03-21T03:38:50.788Z,1018.00
2023-03-21T03:39:50.771Z,1018.00
2023-03-21T03:40:50.752Z,1006.00
2023-03-21T03:42:08.067Z,1004.00
2023-03-21T03:42:51.754Z,1006.00
2023-03-21T03:43:50.713Z,1008.00
2023-03-21T03:44:50.721Z,1010.00
2023-03-21T03:45:50.690Z,1008.00
2023-03-21T03:46:50.764Z,1006.00
2023-03-21T03:47:56.876Z,1011.00
2023-03-21T03:48:51.661Z,1011.00
2023-03-21T03:49:50.660Z,1003.00
2023-03-21T03:50:50.645Z,1005.00
2023-03-21T03:51:50.646Z,1003.00
2023-03-21T03:52:57.005Z,1002.00
2023-03-21T03:53:51.614Z,1011.00
2023-03-21T03:54:50.620Z,1012.00
2023-03-21T03:55:50.599Z,1009.00
2023-03-21T03:56:50.588Z,994.00
2023-03-21T03:57:50.572Z,1010.00
2023-03-21T03:58:50.578Z,1009.00
2023-03-21T03:59:50.576Z,992.00
2023-03-21T04:00:50.557Z,988.00
2023-03-21T04:01:50.590Z,990.00
2023-03-21T04:02:50.589Z,1002.00
2023-03-21T04:03:56.404Z,980.00
2023-03-21T04:04:51.524Z,981.00
2023-03-21T04:05:50.509Z,983.00
2023-03-21T04:06:50.498Z,982.00
2023-03-21T04:07:50.503Z,985.00
2023-03-21T04:08:50.489Z,997.00
2023-03-21T04:09:50.482Z,979.00
2023-03-21T04:10:50.475Z,992.00
2023-03-21T04:11:50.476Z,986.00
2023-03-21T04:12:50.458Z,974.00
2023-03-21T04:13:50.482Z,975.00
2023-03-21T04:14:50.436Z,964.00
2023-03-21T04:15:50.474Z,972.00
2023-03-21T04:16:50.431Z,963.00
2023-03-21T04:17:50.411Z,981.00
2023-03-21T04:18:50.409Z,965.00
2023-03-21T04:19:51.995Z,972.00
2023-03-21T04:20:50.389Z,996.00
2023-03-21T04:21:50.388Z,977.00
2023-03-21T04:22:50.378Z,970.00
2023-03-21T04:23:50.375Z,961.00
2023-03-21T04:24:50.369Z,969.00
2023-03-21T04:25:56.363Z,972.00
2023-03-21T04:26:51.355Z,973.00
2023-03-21T04:27:50.335Z,975.00
2023-03-21T04:28:50.337Z,971.00
2023-03-21T04:29:50.333Z,966.00
2023-03-21T04:31:01.192Z,979.00
2023-03-21T04:31:51.352Z,972.00
2023-03-21T04:32:50.300Z,973.00
2023-03-21T04:33:50.295Z,960.00
2023-03-21T04:34:50.378Z,972.00
2023-03-21T04:35:50.345Z,957.00
2023-03-21T04:36:50.268Z,971.00
2023-03-21T04:37:50.288Z,966.00
2023-03-21T04:38:50.245Z,969.00
2023-03-21T04:39:50.237Z,961.00
2023-03-21T04:40:50.236Z,947.00
2023-03-21T04:41:50.224Z,965.00
2023-03-21T04:42:50.216Z,952.00
2023-03-21T04:43:50.804Z,950.00
2023-03-21T04:44:50.195Z,943.00
2023-03-21T04:45:50.272Z,962.00
2023-03-21T04:46:50.168Z,949.00
2023-03-21T04:47:50.200Z,943.00
2023-03-21T04:48:50.150Z,941.00
2023-03-21T04:49:50.163Z,940.00
2023-03-21T04:50:50.131Z,938.00
2023-03-21T04:51:50.111Z,948.00
2023-03-21T04:52:50.855Z,946.00
2023-03-21T04:53:50.102Z,940.00
2023-03-21T04:54:50.084Z,923.00
2023-03-21T04:55:53.442Z,939.00
2023-03-21T04:56:50.077Z,940.00
2023-03-21T04:57:50.062Z,941.00
2023-03-21T04:58:50.078Z,940.00
2023-03-21T04:59:50.050Z,945.00
2023-03-21T05:00:50.065Z,929.00
2023-03-21T05:01:50.049Z,940.00
2023-03-21T05:02:50.028Z,935.00
2023-03-21T05:03:50.049Z,924.00
2023-03-21T05:04:50.008Z,940.00
2023-03-21T05:05:49.996Z,933.00
2023-03-21T05:06:49.999Z,931.00
2023-03-21T05:07:49.995Z,921.00
2023-03-21T05:08:49.964Z,930.00
2023-03-21T05:09:49.962Z,922.00
2023-03-21T05:10:49.964Z,908.00
2023-03-21T05:11:49.931Z,910.00
2023-03-21T05:12:49.936Z,913.00
2023-03-21T05:13:49.917Z,913.00
2023-03-21T05:14:49.902Z,912.00
2023-03-21T05:15:49.921Z,924.00
2023-03-21T05:16:49.902Z,914.00
2023-03-21T05:17:49.871Z,920.00
2023-03-21T05:18:49.871Z,920.00
2023-03-21T05:19:49.859Z,921.00
2023-03-21T05:20:49.862Z,921.00
2023-03-21T05:21:49.853Z,926.00
2023-03-21T05:22:49.840Z,927.00
2023-03-21T05:23:49.852Z,932.00
2023-03-21T05:24:49.833Z,922.00
2023-03-21T05:25:49.819Z,929.00
2023-03-21T05:26:49.805Z,907.00
2023-03-21T05:27:49.796Z,924.00
2023-03-21T05:28:49.788Z,914.00
2023-03-21T05:29:49.783Z,911.00
2023-03-21T05:30:49.805Z,915.00
2023-03-21T05:31:49.750Z,905.00
2023-03-21T05:32:49.748Z,906.00
2023-03-21T05:33:49.738Z,907.00
2023-03-21T05:34:49.752Z,884.00
2023-03-21T05:35:49.784Z,901.00
2023-03-21T05:36:49.710Z,855.00
2023-03-21T05:37:49.710Z,894.00
2023-03-21T05:38:49.707Z,873.00
2023-03-21T05:39:49.688Z,870.00
2023-03-21T05:40:49.683Z,896.00
2023-03-21T05:41:49.676Z,882.00
2023-03-21T05:42:49.670Z,891.00
2023-03-21T05:43:49.666Z,898.00
2023-03-21T05:44:49.647Z,865.00
2023-03-21T05:45:49.770Z,872.00
2023-03-21T05:46:49.631Z,891.00
2023-03-21T05:47:49.731Z,874.00
2023-03-21T05:48:49.615Z,888.00
2023-03-21T05:49:49.602Z,863.00
2023-03-21T05:50:49.618Z,881.00
2023-03-21T05:51:49.589Z,872.00
2023-03-21T05:52:49.591Z,874.00
2023-03-21T05:53:49.592Z,861.00
2023-03-21T05:54:49.583Z,857.00
2023-03-21T05:55:49.605Z,838.00
2023-03-21T05:56:49.614Z,853.00
2023-03-21T05:57:49.564Z,841.00
2023-03-21T05:58:49.556Z,864.00
2023-03-21T05:59:49.533Z,854.00
2023-03-21T06:00:49.534Z,848.00
2023-03-21T06:01:49.527Z,865.00
2023-03-21T06:02:49.551Z,843.00
2023-03-21T06:03:49.532Z,833.00
2023-03-21T06:04:49.512Z,846.00
2023-03-21T06:05:49.493Z,850.00
2023-03-21T06:06:49.478Z,848.00
2023-03-21T06:07:49.480Z,849.00
2023-03-21T06:08:49.501Z,849.00
2023-03-21T06:09:49.452Z,824.00
2023-03-21T06:10:49.448Z,820.00
2023-03-21T06:11:49.441Z,841.00
2023-03-21T06:12:49.446Z,832.00
2023-03-21T06:13:49.428Z,868.00
2023-03-21T06:14:49.407Z,855.00
2023-03-21T06:15:49.463Z,834.00
2023-03-21T06:16:49.412Z,829.00
2023-03-21T06:17:49.407Z,846.00
2023-03-21T06:18:49.402Z,844.00
2023-03-21T06:19:49.386Z,848.00
2023-03-21T06:20:49.381Z,818.00
2023-03-21T06:21:49.421Z,827.00
2023-03-21T06:22:49.383Z,803.00
2023-03-21T06:23:49.355Z,818.00
2023-03-21T06:24:49.367Z,828.00
2023-03-21T06:25:49.340Z,820.00
2023-03-21T06:26:49.340Z,825.00
2023-03-21T06:27:49.341Z,831.00
2023-03-21T06:28:49.359Z,801.00
2023-03-21T06:29:49.325Z,811.00
2023-03-21T06:30:49.549Z,811.00
2023-03-21T06:31:49.319Z,796.00
2023-03-21T06:32:49.297Z,816.00
2023-03-21T06:33:49.304Z,807.00
2023-03-21T06:34:49.299Z,810.00
2023-03-21T06:35:49.344Z,823.00
2023-03-21T06:36:49.299Z,823.00
2023-03-21T06:37:49.333Z,832.00
2023-03-21T06:38:49.250Z,857.00
2023-03-21T06:39:49.256Z,868.00
2023-03-21T06:40:49.224Z,873.00
2023-03-21T06:41:49.245Z,885.00
2023-03-21T06:42:49.191Z,895.00
2023-03-21T06:43:49.191Z,912.00
2023-03-21T06:44:49.213Z,931.00
2023-03-21T06:45:49.168Z,948.00
2023-03-21T06:46:49.293Z,961.00
2023-03-21T06:47:49.162Z,972.00
2023-03-21T06:48:49.097Z,990.00
2023-03-21T06:49:49.071Z,1010.00
2023-03-21T06:50:49.076Z,1023.00
2023-03-21T06:51:49.044Z,905.00
2023-03-21T06:52:49.027Z,701.00
2023-03-21T06:53:49.020Z,638.00
2023-03-21T06:54:49.058Z,591.00
2023-03-21T06:55:49.017Z,570.00
2023-03-21T06:56:49.046Z,544.00
2023-03-21T06:57:49.089Z,528.00
2023-03-21T06:58:49.002Z,503.00
2023-03-21T06:59:48.998Z,500.00
2023-03-21T07:00:49.039Z,500.00
2023-03-21T07:01:49.031Z,502.00
2023-03-21T07:02:51.161Z,497.00
2023-03-21T07:03:49.007Z,500.00
2023-03-21T07:04:49.021Z,505.00
2023-03-21T07:05:49.004Z,500.00
2023-03-21T07:06:48.988Z,500.00
2023-03-21T07:07:49.005Z,500.00
2023-03-21T07:08:49.191Z,498.00
2023-03-21T07:09:49.013Z,500.00
2023-03-21T07:10:49.003Z,499.00
2023-03-21T07:11:48.997Z,500.00
2023-03-21T07:12:49.023Z,503.00
2023-03-21T07:13:48.994Z,498.00
2023-03-21T07:14:49.004Z,498.00
2023-03-21T07:15:49.002Z,500.00
2023-03-21T07:16:49.040Z,503.00
2023-03-21T07:17:49.029Z,500.00
2023-03-21T07:18:49.038Z,498.00
2023-03-21T07:19:49.027Z,500.00
2023-03-21T07:20:49.048Z,510.00
2023-03-21T07:21:49.032Z,538.00
2023-03-21T07:22:49.033Z,535.00
2023-03-21T07:23:49.029Z,532.00
2023-03-21T07:25:02.391Z,527.00
2023-03-21T07:25:50.098Z,507.00
2023-03-21T07:26:49.042Z,473.00
2023-03-21T07:27:49.069Z,438.00
2023-03-21T07:28:49.047Z,427.00
2023-03-21T07:29:49.097Z,421.00
2023-03-21T07:30:49.061Z,466.00
2023-03-21T07:31:49.114Z,504.00
2023-03-21T07:32:49.081Z,509.00
2023-03-21T07:33:49.066Z,500.00
2023-03-21T07:34:49.082Z,491.00
2023-03-21T07:35:49.089Z,471.00
2023-03-21T07:36:49.071Z,489.00
2023-03-21T07:37:49.102Z,474.00
2023-03-21T07:38:49.084Z,450.00
2023-03-21T07:39:49.092Z,501.00
2023-03-21T07:40:49.098Z,533.00
2023-03-21T07:41:49.102Z,560.00
2023-03-21T07:42:49.099Z,633.00
2023-03-21T07:43:49.179Z,754.00
2023-03-21T07:44:49.099Z,899.00
2023-03-21T07:45:49.173Z,1041.00
2023-03-21T07:46:49.108Z,1223.00
2023-03-21T07:47:49.135Z,1342.00
2023-03-21T07:48:49.072Z,1463.00
2023-03-21T07:49:49.076Z,1468.00
2023-03-21T07:50:49.089Z,1498.00
2023-03-21T07:51:49.075Z,1569.00
2023-03-21T07:52:49.245Z,1710.00
2023-03-21T07:53:49.063Z,1909.00
2023-03-21T07:54:49.058Z,1998.00
2023-03-21T07:55:49.069Z,2051.00
2023-03-21T07:56:49.086Z,2103.00
2023-03-21T07:57:49.053Z,2190.00
2023-03-21T07:58:49.041Z,2239.00
2023-03-21T07:59:49.044Z,2287.00
2023-03-21T08:00:49.015Z,2290.00
2023-03-21T08:01:49.029Z,2302.00
2023-03-21T08:02:49.024Z,2334.00
2023-03-21T08:03:49.018Z,2401.00
2023-03-21T08:04:48.959Z,2519.00
2023-03-21T08:05:48.989Z,2551.00
2023-03-21T08:06:48.964Z,2582.00
2023-03-21T08:07:48.934Z,2622.00
2023-03-21T08:08:48.899Z,2655.00
2023-03-21T08:09:48.899Z,2673.00
2023-03-21T08:10:48.869Z,2715.00
2023-03-21T08:11:48.908Z,2727.00
2023-03-21T08:12:48.837Z,2744.00
2023-03-21T08:13:48.838Z,2764.00
2023-03-21T08:14:48.805Z,2799.00
2023-03-21T08:15:48.834Z,2818.00
2023-03-21T08:16:48.857Z,2832.00
2023-03-21T08:17:48.787Z,2865.00
2023-03-21T08:18:48.740Z,2878.00
2023-03-21T08:19:48.742Z,2899.00
2023-03-21T08:20:48.736Z,2927.00
2023-03-21T08:21:48.712Z,2956.00
2023-03-21T08:22:48.684Z,2983.00
2023-03-21T08:23:48.663Z,3007.00
2023-03-21T08:24:48.665Z,3026.00
2023-03-21T08:25:48.613Z,3046.00
2023-03-21T08:26:48.619Z,3069.00
2023-03-21T08:27:48.586Z,3082.00
2023-03-21T08:28:48.563Z,3108.00
2023-03-21T08:29:48.560Z,3143.00
2023-03-21T08:30:48.561Z,3151.00
2023-03-21T08:31:48.525Z,3169.00
2023-03-21T08:32:48.501Z,3194.00
2023-03-21T08:33:48.499Z,3208.00
2023-03-21T08:34:48.466Z,3217.00
2023-03-21T08:35:48.527Z,3245.00
2023-03-21T08:36:48.439Z,3267.00
2023-03-21T08:37:48.402Z,3273.00
2023-03-21T08:38:48.385Z,3263.00
2023-03-21T08:39:48.403Z,3292.00
2023-03-21T08:40:48.312Z,3228.00
2023-03-21T08:41:48.321Z,3118.00
2023-03-21T08:42:48.309Z,3125.00
2023-03-21T08:43:48.270Z,3089.00
2023-03-21T08:44:48.239Z,3081.00
2023-03-21T08:45:48.221Z,3069.00
2023-03-21T08:46:48.212Z,3066.00
2023-03-21T08:47:48.230Z,3076.00
2023-03-21T08:48:48.163Z,3075.00
2023-03-21T08:49:48.155Z,3045.00
2023-03-21T08:50:48.113Z,3040.00
2023-03-21T08:51:48.092Z,3041.00
2023-03-21T08:52:48.179Z,3047.00
2023-03-21T08:53:48.066Z,3068.00
2023-03-21T08:54:48.053Z,3097.00
2023-03-21T08:55:48.022Z,3154.00
2023-03-21T08:56:48.024Z,3179.00
2023-03-21T08:57:47.989Z,3190.00
2023-03-21T08:58:47.977Z,3210.00
2023-03-21T08:59:47.939Z,3215.00
2023-03-21T09:00:47.901Z,3234.00
2023-03-21T09:01:47.950Z,3249.00
2023-03-21T09:02:47.865Z,3272.00
2023-03-21T09:03:47.945Z,3276.00
2023-03-21T09:04:47.859Z,3290.00
2023-03-21T09:05:47.801Z,3306.00
2023-03-21T09:06:47.771Z,3322.00
2023-03-21T09:07:47.735Z,3331.00
2023-03-21T09:08:47.707Z,3340.00
2023-03-21T09:09:53.603Z,3365.00
2023-03-21T09:10:48.663Z,3367.00
2023-03-21T09:11:47.653Z,3373.00
2023-03-21T09:12:47.690Z,3390.00
2023-03-21T09:13:47.621Z,3420.00
2023-03-21T09:14:47.582Z,3476.00
2023-03-21T09:15:47.651Z,3492.00
2023-03-21T09:16:47.554Z,3501.00
2023-03-21T09:17:47.523Z,3509.00
2023-03-21T09:18:47.581Z,3529.00
2023-03-21T09:19:47.480Z,3532.00
2023-03-21T09:20:47.458Z,3534.00
2023-03-21T09:21:47.431Z,3541.00
2023-03-21T09:22:47.465Z,3536.00
2023-03-21T09:23:47.394Z,3548.00
2023-03-21T09:24:47.367Z,3571.00
2023-03-21T09:25:47.344Z,3537.00
2023-03-21T09:26:47.321Z,3573.00
2023-03-21T09:27:47.330Z,3718.00
2023-03-21T09:28:47.266Z,3912.00
2023-03-21T09:29:47.234Z,4104.00
2023-03-21T09:30:47.263Z,4591.00
2023-03-21T09:31:47.270Z,4569.00
2023-03-21T09:32:47.165Z,4205.00
2023-03-21T09:33:47.175Z,4059.00
2023-03-21T09:34:47.157Z,3819.00
2023-03-21T09:35:47.138Z,3729.00
2023-03-21T09:36:47.076Z,3538.00
2023-03-21T09:37:47.040Z,3371.00
2023-03-21T09:38:47.007Z,3141.00
2023-03-21T09:39:46.982Z,2969.00
2023-03-21T09:40:46.975Z,2894.00
2023-03-21T09:41:46.975Z,2837.00
2023-03-21T09:42:46.913Z,2755.00
2023-03-21T09:43:46.885Z,2686.00
2023-03-21T09:49:46.780Z,2510.00
2023-03-21T10:01:46.593Z,2444.00
2023-03-21T10:02:46.537Z,2553.00
2023-03-21T10:03:46.503Z,2667.00
2023-03-21T10:04:46.554Z,2769.00
2023-03-21T10:05:46.450Z,2847.00
2023-03-21T10:06:46.415Z,2916.00
2023-03-21T10:07:46.402Z,2986.00
2023-03-21T10:08:46.392Z,3039.00
2023-03-21T10:09:46.355Z,3078.00
2023-03-21T10:10:46.367Z,3118.00
2023-03-21T10:11:46.277Z,3167.00
2023-03-21T10:12:46.291Z,3189.00
2023-03-21T10:13:46.242Z,3199.00
2023-03-21T10:14:46.365Z,3149.00
2023-03-21T10:15:46.260Z,3150.00
2023-03-21T10:16:46.223Z,3154.00
2023-03-21T10:17:46.151Z,3152.00
2023-03-21T10:18:46.146Z,3164.00
2023-03-21T10:19:46.151Z,3178.00
2023-03-21T10:20:46.090Z,3180.00
2023-03-21T10:22:03.440Z,3197.00
2023-03-21T10:22:47.080Z,3199.00
2023-03-21T10:23:46.014Z,3187.00
2023-03-21T10:24:46.027Z,3186.00
2023-03-21T10:25:46.060Z,3184.00
2023-03-21T10:26:45.964Z,3179.00
2023-03-21T10:27:45.977Z,3170.00
2023-03-21T11:02:47.134Z,2830.00
2023-03-21T15:07:39.653Z,2702.00
2023-03-21T15:08:39.603Z,2712.00
2023-03-21T15:09:39.579Z,2692.00
2023-03-21T15:10:39.547Z,2700.00
2023-03-21T15:11:39.538Z,2698.00
2023-03-21T15:12:39.504Z,2693.00
2023-03-21T15:13:39.488Z,2683.00
2023-03-21T15:14:39.443Z,2685.00
2023-03-21T15:15:39.784Z,2681.00
2023-03-21T15:16:39.513Z,2690.00
2023-03-21T15:17:39.381Z,2675.00
2023-03-21T15:18:39.357Z,2675.00
2023-03-21T15:19:39.330Z,2669.00
2023-03-21T15:20:39.299Z,2668.00
2023-03-21T15:21:39.281Z,2659.00
2023-03-21T15:22:39.260Z,2658.00
2023-03-21T15:23:39.242Z,2650.00
2023-03-21T15:24:39.267Z,2661.00
2023-03-21T15:25:39.513Z,2658.00
2023-03-21T15:26:39.202Z,2655.00
2023-03-21T15:27:39.175Z,2659.00
2023-03-21T15:28:39.143Z,2655.00
2023-03-21T15:29:39.138Z,2638.00
2023-03-21T15:30:39.102Z,2631.00
2023-03-21T15:31:39.209Z,2637.00
2023-03-21T15:32:39.163Z,2641.00
2023-03-21T15:33:39.076Z,2625.00
2023-03-21T15:34:39.029Z,2630.00
2023-03-21T15:35:39.418Z,2638.00
2023-03-21T15:36:38.989Z,2618.00
2023-03-21T15:37:38.976Z,2620.00
2023-03-21T15:38:38.999Z,2621.00
2023-03-21T15:39:38.975Z,2619.00
2023-03-21T15:40:39.118Z,2623.00
2023-03-21T15:41:38.990Z,2623.00
2023-03-21T15:42:38.904Z,2621.00
2023-03-21T15:43:40.633Z,2615.00
2023-03-21T15:44:38.871Z,2605.00
2023-03-21T15:45:39.194Z,2601.00
2023-03-21T15:46:38.850Z,2602.00
2023-03-21T15:47:38.797Z,2604.00
2023-03-21T15:48:38.876Z,2607.00
2023-03-21T15:49:38.758Z,2610.00
2023-03-21T15:50:39.031Z,2598.00
2023-03-21T15:51:38.694Z,2593.00
2023-03-21T15:52:38.664Z,2605.00
2023-03-21T15:53:38.659Z,2610.00
2023-03-21T15:54:38.630Z,2590.00
2023-03-21T15:55:38.602Z,2593.00
2023-03-21T15:56:38.612Z,2592.00
2023-03-21T15:57:38.569Z,2589.00
2023-03-21T15:58:38.567Z,2577.00
2023-03-21T15:59:38.525Z,2591.00
2023-03-21T16:00:38.903Z,2579.00
2023-03-21T16:01:38.588Z,2571.00
2023-03-21T16:02:38.464Z,2562.00
2023-03-21T16:03:38.514Z,2566.00
2023-03-21T16:04:38.531Z,2556.00
2023-03-21T16:05:38.407Z,2546.00
2023-03-21T16:06:38.376Z,2549.00
2023-03-21T16:07:38.385Z,2546.00
2023-03-21T16:08:38.336Z,2546.00
2023-03-21T16:09:38.344Z,2545.00
2023-03-21T16:10:38.654Z,2554.00
2023-03-21T16:11:38.289Z,2554.00
2023-03-21T16:12:38.281Z,2555.00
2023-03-21T16:13:38.225Z,2556.00
2023-03-21T16:14:38.336Z,2541.00
2023-03-21T16:15:38.260Z,2549.00
2023-03-21T16:16:38.231Z,2545.00
2023-03-21T16:17:38.176Z,2546.00
2023-03-21T16:18:38.127Z,2533.00
2023-03-21T16:19:38.120Z,2527.00
2023-03-21T16:20:38.443Z,2527.00
2023-03-21T16:21:38.059Z,2519.00
2023-03-21T16:22:38.056Z,2533.00
2023-03-21T16:23:38.029Z,2521.00
2023-03-21T16:24:38.051Z,2525.00
2023-03-21T16:25:38.005Z,2508.00
2023-03-21T16:26:37.986Z,2517.00
2023-03-21T16:27:38.007Z,2508.00
2023-03-21T16:28:38.005Z,2501.00
2023-03-21T16:29:37.965Z,2499.00
2023-03-21T16:30:38.185Z,2503.00
2023-03-21T16:31:37.891Z,2495.00
2023-03-21T16:32:37.870Z,2509.00
2023-03-21T16:33:37.848Z,2491.00
2023-03-21T16:34:37.835Z,2502.00
2023-03-21T16:35:37.823Z,2491.00
2023-03-21T16:36:37.812Z,2490.00
2023-03-21T16:37:37.786Z,2485.00
2023-03-21T16:38:37.763Z,2477.00
2023-03-21T16:39:37.786Z,2488.00
2023-03-21T16:40:37.762Z,2485.00
2023-03-21T16:41:37.713Z,2476.00
2023-03-21T16:42:37.698Z,2479.00
2023-03-21T16:43:37.668Z,2472.00
2023-03-21T16:44:37.653Z,2459.00
2023-03-21T16:45:37.668Z,2475.00
2023-03-21T16:46:37.622Z,2460.00
2023-03-21T16:47:37.596Z,2462.00
2023-03-21T16:48:37.568Z,2465.00
2023-03-21T16:49:37.561Z,2446.00
2023-03-21T16:50:37.944Z,2462.00
2023-03-21T16:51:37.507Z,2454.00
2023-03-21T20:30:33.694Z,1986.00
2023-03-21T20:37:33.673Z,1960.00
2023-03-21T20:44:58.257Z,1941.00
2023-03-21T20:59:33.217Z,1931.00
2023-03-21T21:05:34.917Z,1905.00
2023-03-21T21:12:33.017Z,1896.00
2023-03-21T21:18:32.945Z,1890.00
2023-03-21T22:03:32.509Z,1802.00
2023-03-21T22:04:32.403Z,1800.00
2023-03-21T22:05:32.396Z,1803.00
2023-03-21T22:06:32.375Z,1807.00
2023-03-21T22:07:32.355Z,1808.00
2023-03-21T22:08:32.360Z,1811.00
2023-03-21T22:09:32.349Z,1794.00
2023-03-21T22:10:32.335Z,1789.00